Bonfinopolis de Minas, Brazil
Current Conditions -  °F | °C
As of 5:00 AM on Monday 20 Oct 2014 (Local Time) from SBBR Reporting Station
Few Clouds Few Clouds  
Wind Chill: 73°   Ceiling: Unl
Heat Index: 73°   Visibility: 6mi
Dew Point: 55°   Wind: 6mph
Humidity: 53%   Direction: 230°SW
Pressure: 30.03"   Gusts: NA
Location:  16.57°S, 45.99°W
Report Text: SBBR 200800Z 23005KT 9999 FEW035 23/13 Q1017
Loading
Personal Weather Stations






























Interactive Weather Map
Tropical Storm Tracking
New forecast layout! Learn more

10-Day Weather Forecast

Advertisements
Track Severe Weather on mobile